sensor_id;sensor_type;location;lat;lon;timestamp;temperature;humidity
9919;DHT22;4998;51.024;13.828;2023-04-15T00:01:46;10.90;99.70
9919;DHT22;4998;51.024;13.828;2023-04-15T00:04:13;10.90;99.70
9919;DHT22;4998;51.024;13.828;2023-04-15T00:06:40;10.90;99.70
9919;DHT22;4998;51.024;13.828;2023-04-15T00:09:09;10.90;99.60
9919;DHT22;4998;51.024;13.828;2023-04-15T00:11:36;10.90;99.70
9919;DHT22;4998;51.024;13.828;2023-04-15T00:14:03;10.90;99.70
9919;DHT22;4998;51.024;13.828;2023-04-15T00:16:30;10.90;99.80
9919;DHT22;4998;51.024;13.828;2023-04-15T00:18:57;10.90;99.80
9919;DHT22;4998;51.024;13.828;2023-04-15T00:21:24;10.90;99.80
9919;DHT22;4998;51.024;13.828;2023-04-15T00:23:53;10.80;99.70
9919;DHT22;4998;51.024;13.828;2023-04-15T00:26:22;10.80;99.80
9919;DHT22;4998;51.024;13.828;2023-04-15T00:28:49;10.80;99.90
9919;DHT22;4998;51.024;13.828;2023-04-15T00:31:16;10.80;99.90
9919;DHT22;4998;51.024;13.828;2023-04-15T00:33:43;10.90;99.90
9919;DHT22;4998;51.024;13.828;2023-04-15T00:36:10;10.90;99.90
9919;DHT22;4998;51.024;13.828;2023-04-15T00:38:38;10.90;99.90
9919;DHT22;4998;51.024;13.828;2023-04-15T00:41:05;10.90;99.90
9919;DHT22;4998;51.024;13.828;2023-04-15T00:43:33;10.90;99.90
9919;DHT22;4998;51.024;13.828;2023-04-15T00:46:00;10.90;99.90
9919;DHT22;4998;51.024;13.828;2023-04-15T00:48:29;10.90;99.90
9919;DHT22;4998;51.024;13.828;2023-04-15T00:50:57;10.90;99.90
9919;DHT22;4998;51.024;13.828;2023-04-15T00:53:24;10.90;99.90
9919;DHT22;4998;51.024;13.828;2023-04-15T00:55:51;10.90;99.90
9919;DHT22;4998;51.024;13.828;2023-04-15T00:58:18;10.90;99.90
9919;DHT22;4998;51.024;13.828;2023-04-15T01:00:47;10.90;99.90
9919;DHT22;4998;51.024;13.828;2023-04-15T01:03:18;10.90;99.90
9919;DHT22;4998;51.024;13.828;2023-04-15T01:05:45;10.90;99.90
9919;DHT22;4998;51.024;13.828;2023-04-15T01:08:13;10.90;99.90
9919;DHT22;4998;51.024;13.828;2023-04-15T01:10:41;10.90;99.90
9919;DHT22;4998;51.024;13.828;2023-04-15T01:13:08;10.90;99.90
9919;DHT22;4998;51.024;13.828;2023-04-15T01:15:35;10.90;99.90
9919;DHT22;4998;51.024;13.828;2023-04-15T01:18:04;10.90;99.90
9919;DHT22;4998;51.024;13.828;2023-04-15T01:20:32;10.80;99.90
9919;DHT22;4998;51.024;13.828;2023-04-15T01:23:00;10.80;99.90
9919;DHT22;4998;51.024;13.828;2023-04-15T01:25:32;10.80;99.90
9919;DHT22;4998;51.024;13.828;2023-04-15T01:27:59;10.80;99.90
9919;DHT22;4998;51.024;13.828;2023-04-15T01:30:26;10.80;99.90
9919;DHT22;4998;51.024;13.828;2023-04-15T01:32:54;10.80;99.90
9919;DHT22;4998;51.024;13.828;2023-04-15T01:35:21;10.80;99.90
9919;DHT22;4998;51.024;13.828;2023-04-15T01:37:48;10.80;99.90
9919;DHT22;4998;51.024;13.828;2023-04-15T01:40:16;10.80;99.90
9919;DHT22;4998;51.024;13.828;2023-04-15T01:42:45;10.80;99.90
9919;DHT22;4998;51.024;13.828;2023-04-15T01:45:12;10.80;99.90
9919;DHT22;4998;51.024;13.828;2023-04-15T01:47:40;10.80;99.90
9919;DHT22;4998;51.024;13.828;2023-04-15T01:50:07;10.80;99.90
9919;DHT22;4998;51.024;13.828;2023-04-15T01:52:34;10.80;99.90
9919;DHT22;4998;51.024;13.828;2023-04-15T01:55:02;10.80;99.90
9919;DHT22;4998;51.024;13.828;2023-04-15T01:57:29;10.80;99.90
9919;DHT22;4998;51.024;13.828;2023-04-15T01:59:57;10.90;99.90
9919;DHT22;4998;51.024;13.828;2023-04-15T02:02:24;10.80;99.90
9919;DHT22;4998;51.024;13.828;2023-04-15T02:04:51;10.90;99.90
9919;DHT22;4998;51.024;13.828;2023-04-15T02:07:19;10.90;99.90
9919;DHT22;4998;51.024;13.828;2023-04-15T02:09:46;10.90;99.90
9919;DHT22;4998;51.024;13.828;2023-04-15T02:12:13;10.90;99.90
9919;DHT22;4998;51.024;13.828;2023-04-15T02:14:40;10.90;99.90
9919;DHT22;4998;51.024;13.828;2023-04-15T02:17:08;10.90;99.90
9919;DHT22;4998;51.024;13.828;2023-04-15T02:19:35;10.90;99.90
9919;DHT22;4998;51.024;13.828;2023-04-15T02:22:03;10.70;99.90
9919;DHT22;4998;51.024;13.828;2023-04-15T02:24:32;10.90;99.90
9919;DHT22;4998;51.024;13.828;2023-04-15T02:26:59;10.90;99.90
9919;DHT22;4998;51.024;13.828;2023-04-15T02:29:28;10.90;99.90
9919;DHT22;4998;51.024;13.828;2023-04-15T02:31:55;10.90;99.90
9919;DHT22;4998;51.024;13.828;2023-04-15T02:34:23;10.90;99.90
9919;DHT22;4998;51.024;13.828;2023-04-15T02:36:51;10.90;99.90
9919;DHT22;4998;51.024;13.828;2023-04-15T02:39:21;10.90;99.90
9919;DHT22;4998;51.024;13.828;2023-04-15T02:41:49;10.90;99.90
9919;DHT22;4998;51.024;13.828;2023-04-15T02:44:17;10.90;99.90
9919;DHT22;4998;51.024;13.828;2023-04-15T02:46:45;10.90;99.90
9919;DHT22;4998;51.024;13.828;2023-04-15T02:49:15;10.90;99.90
9919;DHT22;4998;51.024;13.828;2023-04-15T02:51:43;11.00;99.90
9919;DHT22;4998;51.024;13.828;2023-04-15T02:54:13;11.00;99.90
9919;DHT22;4998;51.024;13.828;2023-04-15T02:56:40;11.00;99.90
9919;DHT22;4998;51.024;13.828;2023-04-15T02:59:07;11.00;99.90
9919;DHT22;4998;51.024;13.828;2023-04-15T03:01:34;11.00;99.90
9919;DHT22;4998;51.024;13.828;2023-04-15T03:04:01;11.00;99.90
9919;DHT22;4998;51.024;13.828;2023-04-15T03:06:28;11.00;99.90
9919;DHT22;4998;51.024;13.828;2023-04-15T03:08:57;11.00;99.90
9919;DHT22;4998;51.024;13.828;2023-04-15T03:11:24;11.00;99.90
9919;DHT22;4998;51.024;13.828;2023-04-15T03:13:55;11.00;99.90
9919;DHT22;4998;51.024;13.828;2023-04-15T03:16:22;11.00;99.90
9919;DHT22;4998;51.024;13.828;2023-04-15T03:18:49;11.00;99.90
9919;DHT22;4998;51.024;13.828;2023-04-15T03:21:16;11.00;99.90
9919;DHT22;4998;51.024;13.828;2023-04-15T03:23:44;10.90;99.90
9919;DHT22;4998;51.024;13.828;2023-04-15T03:26:25;11.00;99.90
9919;DHT22;4998;51.024;13.828;2023-04-15T03:28:53;10.90;99.90
9919;DHT22;4998;51.024;13.828;2023-04-15T03:31:20;11.00;99.90
9919;DHT22;4998;51.024;13.828;2023-04-15T03:33:47;10.90;99.90
9919;DHT22;4998;51.024;13.828;2023-04-15T03:36:14;11.00;99.90
9919;DHT22;4998;51.024;13.828;2023-04-15T03:38:41;11.00;99.90
9919;DHT22;4998;51.024;13.828;2023-04-15T03:41:08;10.90;99.90
9919;DHT22;4998;51.024;13.828;2023-04-15T03:43:37;10.90;99.90
9919;DHT22;4998;51.024;13.828;2023-04-15T03:46:04;11.00;99.90
9919;DHT22;4998;51.024;13.828;2023-04-15T03:48:31;11.00;99.90
9919;DHT22;4998;51.024;13.828;2023-04-15T03:50:58;11.00;99.90
9919;DHT22;4998;51.024;13.828;2023-04-15T03:53:25;11.00;99.90
9919;DHT22;4998;51.024;13.828;2023-04-15T03:55:52;11.00;99.90
9919;DHT22;4998;51.024;13.828;2023-04-15T03:58:19;11.00;99.90
9919;DHT22;4998;51.024;13.828;2023-04-15T04:00:48;11.00;99.90
9919;DHT22;4998;51.024;13.828;2023-04-15T04:03:15;11.00;99.90
9919;DHT22;4998;51.024;13.828;2023-04-15T04:05:42;11.00;99.90
9919;DHT22;4998;51.024;13.828;2023-04-15T04:08:09;11.00;99.90
9919;DHT22;4998;51.024;13.828;2023-04-15T04:10:38;11.00;99.90
9919;DHT22;4998;51.024;13.828;2023-04-15T04:13:05;11.00;99.90
9919;DHT22;4998;51.024;13.828;2023-04-15T04:15:32;11.00;99.90
9919;DHT22;4998;51.024;13.828;2023-04-15T04:18:01;11.00;99.90
9919;DHT22;4998;51.024;13.828;2023-04-15T04:20:28;11.00;99.90
9919;DHT22;4998;51.024;13.828;2023-04-15T04:22:56;11.00;99.90
9919;DHT22;4998;51.024;13.828;2023-04-15T04:25:24;11.00;99.90
9919;DHT22;4998;51.024;13.828;2023-04-15T04:27:51;10.90;99.90
9919;DHT22;4998;51.024;13.828;2023-04-15T04:30:18;11.00;99.90
9919;DHT22;4998;51.024;13.828;2023-04-15T04:32:46;10.90;99.90
9919;DHT22;4998;51.024;13.828;2023-04-15T04:35:14;10.90;99.90
9919;DHT22;4998;51.024;13.828;2023-04-15T04:37:41;11.00;99.90
9919;DHT22;4998;51.024;13.828;2023-04-15T04:40:09;11.00;99.90
9919;DHT22;4998;51.024;13.828;2023-04-15T04:42:36;11.00;99.90
9919;DHT22;4998;51.024;13.828;2023-04-15T04:45:03;11.10;99.90
9919;DHT22;4998;51.024;13.828;2023-04-15T04:47:31;11.10;99.90
9919;DHT22;4998;51.024;13.828;2023-04-15T04:49:58;11.10;99.90
9919;DHT22;4998;51.024;13.828;2023-04-15T04:52:26;11.10;99.90
9919;DHT22;4998;51.024;13.828;2023-04-15T04:54:53;11.10;99.90
9919;DHT22;4998;51.024;13.828;2023-04-15T04:57:20;11.20;99.90
9919;DHT22;4998;51.024;13.828;2023-04-15T04:59:47;11.20;99.90
9919;DHT22;4998;51.024;13.828;2023-04-15T05:02:14;11.20;99.90
9919;DHT22;4998;51.024;13.828;2023-04-15T05:04:41;11.20;99.90
9919;DHT22;4998;51.024;13.828;2023-04-15T05:07:08;11.30;99.90
9919;DHT22;4998;51.024;13.828;2023-04-15T05:09:36;11.30;99.90
9919;DHT22;4998;51.024;13.828;2023-04-15T05:12:04;11.30;99.90
9919;DHT22;4998;51.024;13.828;2023-04-15T05:14:31;11.40;99.90
9919;DHT22;4998;51.024;13.828;2023-04-15T05:16:58;11.40;99.90
9919;DHT22;4998;51.024;13.828;2023-04-15T05:19:25;11.40;99.90
9919;DHT22;4998;51.024;13.828;2023-04-15T05:21:52;11.50;99.90
9919;DHT22;4998;51.024;13.828;2023-04-15T05:24:19;11.50;99.90
9919;DHT22;4998;51.024;13.828;2023-04-15T05:26:48;11.60;99.90
9919;DHT22;4998;51.024;13.828;2023-04-15T05:29:15;11.60;99.90
9919;DHT22;4998;51.024;13.828;2023-04-15T05:31:42;11.70;99.90
9919;DHT22;4998;51.024;13.828;2023-04-15T05:34:10;11.70;99.90
9919;DHT22;4998;51.024;13.828;2023-04-15T05:36:37;11.80;99.90
9919;DHT22;4998;51.024;13.828;2023-04-15T05:39:04;11.80;99.90
9919;DHT22;4998;51.024;13.828;2023-04-15T05:41:31;11.90;99.90
9919;DHT22;4998;51.024;13.828;2023-04-15T05:44:00;11.90;99.90
9919;DHT22;4998;51.024;13.828;2023-04-15T05:46:27;12.00;99.90
9919;DHT22;4998;51.024;13.828;2023-04-15T05:48:54;12.00;99.90
9919;DHT22;4998;51.024;13.828;2023-04-15T05:51:21;12.00;99.90
9919;DHT22;4998;51.024;13.828;2023-04-15T05:53:48;12.00;99.90
9919;DHT22;4998;51.024;13.828;2023-04-15T05:56:15;12.10;99.90
9919;DHT22;4998;51.024;13.828;2023-04-15T05:58:42;12.20;99.90
9919;DHT22;4998;51.024;13.828;2023-04-15T06:01:10;12.20;99.90
9919;DHT22;4998;51.024;13.828;2023-04-15T06:03:38;12.20;99.90
9919;DHT22;4998;51.024;13.828;2023-04-15T06:06:05;12.20;99.90
9919;DHT22;4998;51.024;13.828;2023-04-15T06:08:32;12.20;99.90
9919;DHT22;4998;51.024;13.828;2023-04-15T06:10:59;12.30;99.90
9919;DHT22;4998;51.024;13.828;2023-04-15T06:13:26;12.30;99.90
9919;DHT22;4998;51.024;13.828;2023-04-15T06:15:53;12.30;99.90
9919;DHT22;4998;51.024;13.828;2023-04-15T06:18:21;12.30;99.90
9919;DHT22;4998;51.024;13.828;2023-04-15T06:20:49;12.40;99.90
9919;DHT22;4998;51.024;13.828;2023-04-15T06:23:16;12.30;99.90
9919;DHT22;4998;51.024;13.828;2023-04-15T06:25:43;12.40;99.90
9919;DHT22;4998;51.024;13.828;2023-04-15T06:28:10;12.40;99.90
9919;DHT22;4998;51.024;13.828;2023-04-15T06:30:37;12.40;99.90
9919;DHT22;4998;51.024;13.828;2023-04-15T06:33:04;12.40;99.90
9919;DHT22;4998;51.024;13.828;2023-04-15T06:35:33;12.40;99.90
9919;DHT22;4998;51.024;13.828;2023-04-15T06:38:00;12.40;99.90
9919;DHT22;4998;51.024;13.828;2023-04-15T06:40:27;12.40;99.90
9919;DHT22;4998;51.024;13.828;2023-04-15T06:42:54;12.50;99.90
9919;DHT22;4998;51.024;13.828;2023-04-15T06:45:21;12.50;99.90
9919;DHT22;4998;51.024;13.828;2023-04-15T06:47:48;12.50;99.90
9919;DHT22;4998;51.024;13.828;2023-04-15T06:50:15;12.50;99.90
9919;DHT22;4998;51.024;13.828;2023-04-15T06:52:44;12.60;99.90
9919;DHT22;4998;51.024;13.828;2023-04-15T06:55:11;12.60;99.90
9919;DHT22;4998;51.024;13.828;2023-04-15T06:57:39;12.60;99.90
9919;DHT22;4998;51.024;13.828;2023-04-15T07:00:07;12.70;99.90
9919;DHT22;4998;51.024;13.828;2023-04-15T07:02:35;12.70;99.90
9919;DHT22;4998;51.024;13.828;2023-04-15T07:05:03;12.70;99.90
9919;DHT22;4998;51.024;13.828;2023-04-15T07:07:30;12.80;99.90
9919;DHT22;4998;51.024;13.828;2023-04-15T07:09:58;12.80;99.90
9919;DHT22;4998;51.024;13.828;2023-04-15T07:12:26;12.80;99.90
9919;DHT22;4998;51.024;13.828;2023-04-15T07:14:53;12.90;99.90
9919;DHT22;4998;51.024;13.828;2023-04-15T07:17:20;12.90;99.90
9919;DHT22;4998;51.024;13.828;2023-04-15T07:19:47;12.90;99.90
9919;DHT22;4998;51.024;13.828;2023-04-15T07:22:14;13.00;99.90
9919;DHT22;4998;51.024;13.828;2023-04-15T07:24:41;13.00;99.90
9919;DHT22;4998;51.024;13.828;2023-04-15T07:27:10;13.00;99.90
9919;DHT22;4998;51.024;13.828;2023-04-15T07:29:37;13.00;99.90
9919;DHT22;4998;51.024;13.828;2023-04-15T07:32:04;13.10;99.90
9919;DHT22;4998;51.024;13.828;2023-04-15T07:34:31;13.00;99.90
9919;DHT22;4998;51.024;13.828;2023-04-15T07:36:59;13.10;99.90
9919;DHT22;4998;51.024;13.828;2023-04-15T07:39:26;13.10;99.90
9919;DHT22;4998;51.024;13.828;2023-04-15T07:41:53;13.20;99.90
9919;DHT22;4998;51.024;13.828;2023-04-15T07:44:22;13.20;99.90
9919;DHT22;4998;51.024;13.828;2023-04-15T07:46:49;13.20;99.90
9919;DHT22;4998;51.024;13.828;2023-04-15T07:49:17;13.30;99.90
9919;DHT22;4998;51.024;13.828;2023-04-15T07:51:46;13.30;99.90
9919;DHT22;4998;51.024;13.828;2023-04-15T07:54:13;13.40;99.90
9919;DHT22;4998;51.024;13.828;2023-04-15T07:56:41;13.40;99.90
9919;DHT22;4998;51.024;13.828;2023-04-15T07:59:08;13.50;99.90
9919;DHT22;4998;51.024;13.828;2023-04-15T08:01:36;13.50;99.90
9919;DHT22;4998;51.024;13.828;2023-04-15T08:04:03;13.60;99.90
9919;DHT22;4998;51.024;13.828;2023-04-15T08:06:30;13.70;99.90
9919;DHT22;4998;51.024;13.828;2023-04-15T08:08:57;13.80;99.90
9919;DHT22;4998;51.024;13.828;2023-04-15T08:11:24;13.80;99.90
9919;DHT22;4998;51.024;13.828;2023-04-15T08:13:52;13.90;99.90
9919;DHT22;4998;51.024;13.828;2023-04-15T08:16:20;13.90;99.90
9919;DHT22;4998;51.024;13.828;2023-04-15T08:18:50;13.90;99.90
9919;DHT22;4998;51.024;13.828;2023-04-15T08:21:18;14.00;99.90
9919;DHT22;4998;51.024;13.828;2023-04-15T08:23:47;14.00;99.90
9919;DHT22;4998;51.024;13.828;2023-04-15T08:26:14;14.00;99.80
9919;DHT22;4998;51.024;13.828;2023-04-15T08:28:41;14.00;99.60
9919;DHT22;4998;51.024;13.828;2023-04-15T08:31:08;14.00;99.50
9919;DHT22;4998;51.024;13.828;2023-04-15T08:33:36;14.00;99.50
9919;DHT22;4998;51.024;13.828;2023-04-15T08:36:04;13.90;99.40
9919;DHT22;4998;51.024;13.828;2023-04-15T08:38:32;13.90;99.30
9919;DHT22;4998;51.024;13.828;2023-04-15T08:41:01;13.90;99.10
9919;DHT22;4998;51.024;13.828;2023-04-15T08:43:34;13.90;99.00
9919;DHT22;4998;51.024;13.828;2023-04-15T08:46:01;13.90;98.80
9919;DHT22;4998;51.024;13.828;2023-04-15T08:48:32;13.80;98.70
9919;DHT22;4998;51.024;13.828;2023-04-15T08:51:00;13.80;98.60
9919;DHT22;4998;51.024;13.828;2023-04-15T08:53:29;13.70;98.40
9919;DHT22;4998;51.024;13.828;2023-04-15T08:55:59;13.70;98.20
9919;DHT22;4998;51.024;13.828;2023-04-15T08:58:28;13.60;98.20
9919;DHT22;4998;51.024;13.828;2023-04-15T09:00:56;13.50;98.20
9919;DHT22;4998;51.024;13.828;2023-04-15T09:03:23;13.50;98.30
9919;DHT22;4998;51.024;13.828;2023-04-15T09:05:51;13.50;98.40
9919;DHT22;4998;51.024;13.828;2023-04-15T09:08:18;13.50;98.40
9919;DHT22;4998;51.024;13.828;2023-04-15T09:10:47;13.50;98.40
9919;DHT22;4998;51.024;13.828;2023-04-15T09:13:13;13.50;98.10
9919;DHT22;4998;51.024;13.828;2023-04-15T09:15:41;13.50;98.10
9919;DHT22;4998;51.024;13.828;2023-04-15T09:18:10;13.40;98.10
9919;DHT22;4998;51.024;13.828;2023-04-15T09:20:39;13.50;98.10
9919;DHT22;4998;51.024;13.828;2023-04-15T09:23:13;13.50;98.00
9919;DHT22;4998;51.024;13.828;2023-04-15T09:25:41;13.50;97.90
9919;DHT22;4998;51.024;13.828;2023-04-15T09:28:09;13.50;98.00
9919;DHT22;4998;51.024;13.828;2023-04-15T09:30:36;13.50;97.80
9919;DHT22;4998;51.024;13.828;2023-04-15T09:33:04;13.50;97.80
9919;DHT22;4998;51.024;13.828;2023-04-15T09:35:33;13.60;97.60
9919;DHT22;4998;51.024;13.828;2023-04-15T09:38:06;13.60;97.40
9919;DHT22;4998;51.024;13.828;2023-04-15T09:40:34;13.60;97.10
9919;DHT22;4998;51.024;13.828;2023-04-15T09:43:02;13.60;97.10
9919;DHT22;4998;51.024;13.828;2023-04-15T09:45:31;13.60;97.00
9919;DHT22;4998;51.024;13.828;2023-04-15T09:48:14;13.60;96.90
9919;DHT22;4998;51.024;13.828;2023-04-15T09:50:42;13.60;96.90
9919;DHT22;4998;51.024;13.828;2023-04-15T09:53:09;13.60;96.90
9919;DHT22;4998;51.024;13.828;2023-04-15T09:55:37;13.60;96.90
9919;DHT22;4998;51.024;13.828;2023-04-15T09:58:08;13.60;96.80
9919;DHT22;4998;51.024;13.828;2023-04-15T10:00:36;13.60;96.60
9919;DHT22;4998;51.024;13.828;2023-04-15T10:03:04;13.70;96.60
9919;DHT22;4998;51.024;13.828;2023-04-15T10:05:32;13.60;96.60
9919;DHT22;4998;51.024;13.828;2023-04-15T10:07:59;13.70;96.50
9919;DHT22;4998;51.024;13.828;2023-04-15T10:10:27;13.70;96.30
9919;DHT22;4998;51.024;13.828;2023-04-15T10:12:54;13.70;96.10
9919;DHT22;4998;51.024;13.828;2023-04-15T10:15:22;13.70;96.00
9919;DHT22;4998;51.024;13.828;2023-04-15T10:17:52;13.70;96.20
9919;DHT22;4998;51.024;13.828;2023-04-15T10:20:21;13.70;95.60
9919;DHT22;4998;51.024;13.828;2023-04-15T10:22:49;13.70;95.70
9919;DHT22;4998;51.024;13.828;2023-04-15T10:25:17;13.70;95.80
9919;DHT22;4998;51.024;13.828;2023-04-15T10:27:45;13.70;95.70
9919;DHT22;4998;51.024;13.828;2023-04-15T10:30:13;13.70;95.70
9919;DHT22;4998;51.024;13.828;2023-04-15T10:32:41;13.70;95.70
9919;DHT22;4998;51.024;13.828;2023-04-15T10:35:10;13.70;96.00
9919;DHT22;4998;51.024;13.828;2023-04-15T10:37:38;13.70;95.80
9919;DHT22;4998;51.024;13.828;2023-04-15T10:40:23;13.70;95.80
9919;DHT22;4998;51.024;13.828;2023-04-15T10:42:52;13.80;95.80
9919;DHT22;4998;51.024;13.828;2023-04-15T10:45:19;13.80;96.10
9919;DHT22;4998;51.024;13.828;2023-04-15T10:47:51;13.90;96.10
9919;DHT22;4998;51.024;13.828;2023-04-15T10:50:20;13.90;95.80
9919;DHT22;4998;51.024;13.828;2023-04-15T10:52:50;14.00;95.70
9919;DHT22;4998;51.024;13.828;2023-04-15T10:55:20;14.10;95.70
9919;DHT22;4998;51.024;13.828;2023-04-15T10:57:51;14.20;95.70
9919;DHT22;4998;51.024;13.828;2023-04-15T11:00:19;14.20;95.40
9919;DHT22;4998;51.024;13.828;2023-04-15T11:02:52;14.20;95.40
9919;DHT22;4998;51.024;13.828;2023-04-15T11:05:22;14.30;95.20
9919;DHT22;4998;51.024;13.828;2023-04-15T11:07:59;14.30;95.00
9919;DHT22;4998;51.024;13.828;2023-04-15T11:10:50;14.40;94.90
9919;DHT22;4998;51.024;13.828;2023-04-15T11:13:25;14.40;94.80
9919;DHT22;4998;51.024;13.828;2023-04-15T11:15:58;14.50;94.60
9919;DHT22;4998;51.024;13.828;2023-04-15T11:18:31;14.40;94.30
9919;DHT22;4998;51.024;13.828;2023-04-15T11:21:02;14.40;94.10
9919;DHT22;4998;51.024;13.828;2023-04-15T11:23:31;14.40;93.90
9919;DHT22;4998;51.024;13.828;2023-04-15T11:25:59;14.40;93.80
9919;DHT22;4998;51.024;13.828;2023-04-15T11:28:30;14.40;93.70
9919;DHT22;4998;51.024;13.828;2023-04-15T11:31:02;14.40;93.60
9919;DHT22;4998;51.024;13.828;2023-04-15T11:33:31;14.40;93.30
9919;DHT22;4998;51.024;13.828;2023-04-15T11:35:59;14.40;93.40
9919;DHT22;4998;51.024;13.828;2023-04-15T11:38:26;14.30;93.30
9919;DHT22;4998;51.024;13.828;2023-04-15T11:40:53;14.30;93.20
9919;DHT22;4998;51.024;13.828;2023-04-15T11:43:22;14.30;93.20
9919;DHT22;4998;51.024;13.828;2023-04-15T11:45:51;14.40;93.10
9919;DHT22;4998;51.024;13.828;2023-04-15T11:48:20;14.40;93.30
9919;DHT22;4998;51.024;13.828;2023-04-15T11:50:53;14.40;93.30
9919;DHT22;4998;51.024;13.828;2023-04-15T11:53:22;14.40;93.20
9919;DHT22;4998;51.024;13.828;2023-04-15T11:55:51;14.40;93.20
9919;DHT22;4998;51.024;13.828;2023-04-15T11:58:22;14.50;92.90
9919;DHT22;4998;51.024;13.828;2023-04-15T12:00:50;14.50;92.60
9919;DHT22;4998;51.024;13.828;2023-04-15T12:03:21;14.50;92.50
9919;DHT22;4998;51.024;13.828;2023-04-15T12:06:09;14.50;92.30
9919;DHT22;4998;51.024;13.828;2023-04-15T12:09:02;14.50;92.40
9919;DHT22;4998;51.024;13.828;2023-04-15T12:11:35;14.50;92.20
9919;DHT22;4998;51.024;13.828;2023-04-15T12:14:05;14.50;92.10
9919;DHT22;4998;51.024;13.828;2023-04-15T12:16:33;14.50;92.20
9919;DHT22;4998;51.024;13.828;2023-04-15T12:19:04;14.50;92.30
9919;DHT22;4998;51.024;13.828;2023-04-15T12:21:38;14.50;92.20
9919;DHT22;4998;51.024;13.828;2023-04-15T12:24:07;14.50;92.30
9919;DHT22;4998;51.024;13.828;2023-04-15T12:26:37;14.60;92.50
9919;DHT22;4998;51.024;13.828;2023-04-15T12:29:06;14.60;92.40
9919;DHT22;4998;51.024;13.828;2023-04-15T12:31:33;14.70;92.20
9919;DHT22;4998;51.024;13.828;2023-04-15T12:34:02;14.80;92.20
9919;DHT22;4998;51.024;13.828;2023-04-15T12:36:30;14.80;92.00
9919;DHT22;4998;51.024;13.828;2023-04-15T12:39:01;14.90;91.90
9919;DHT22;4998;51.024;13.828;2023-04-15T12:41:30;14.90;91.80
9919;DHT22;4998;51.024;13.828;2023-04-15T12:43:58;14.90;91.60
9919;DHT22;4998;51.024;13.828;2023-04-15T12:46:25;15.00;91.70
9919;DHT22;4998;51.024;13.828;2023-04-15T12:48:53;15.00;91.40
9919;DHT22;4998;51.024;13.828;2023-04-15T12:51:20;15.10;91.40
9919;DHT22;4998;51.024;13.828;2023-04-15T12:53:47;15.10;91.10
9919;DHT22;4998;51.024;13.828;2023-04-15T12:56:16;15.10;90.80
9919;DHT22;4998;51.024;13.828;2023-04-15T12:58:44;15.10;90.60
9919;DHT22;4998;51.024;13.828;2023-04-15T13:01:11;15.10;90.30
9919;DHT22;4998;51.024;13.828;2023-04-15T13:03:38;15.10;90.40
9919;DHT22;4998;51.024;13.828;2023-04-15T13:06:05;15.10;90.20
9919;DHT22;4998;51.024;13.828;2023-04-15T13:08:32;15.10;90.10
9919;DHT22;4998;51.024;13.828;2023-04-15T13:10:59;15.10;90.10
9919;DHT22;4998;51.024;13.828;2023-04-15T13:13:26;15.10;90.00
9919;DHT22;4998;51.024;13.828;2023-04-15T13:15:56;15.10;89.80
9919;DHT22;4998;51.024;13.828;2023-04-15T13:18:23;15.10;89.80
9919;DHT22;4998;51.024;13.828;2023-04-15T13:20:50;15.10;90.00
9919;DHT22;4998;51.024;13.828;2023-04-15T13:23:17;15.10;90.10
9919;DHT22;4998;51.024;13.828;2023-04-15T13:25:44;15.20;90.00
9919;DHT22;4998;51.024;13.828;2023-04-15T13:28:11;15.20;90.00
9919;DHT22;4998;51.024;13.828;2023-04-15T13:30:38;15.30;90.00
9919;DHT22;4998;51.024;13.828;2023-04-15T13:33:07;15.40;90.00
9919;DHT22;4998;51.024;13.828;2023-04-15T13:35:34;15.40;89.90
9919;DHT22;4998;51.024;13.828;2023-04-15T13:38:02;15.50;90.00
9919;DHT22;4998;51.024;13.828;2023-04-15T13:40:29;15.50;89.80
9919;DHT22;4998;51.024;13.828;2023-04-15T13:42:56;15.60;90.00
9919;DHT22;4998;51.024;13.828;2023-04-15T13:45:23;15.70;90.00
9919;DHT22;4998;51.024;13.828;2023-04-15T13:47:50;15.80;89.70
9919;DHT22;4998;51.024;13.828;2023-04-15T13:50:18;15.90;89.50
9919;DHT22;4998;51.024;13.828;2023-04-15T13:52:45;16.00;89.20
9919;DHT22;4998;51.024;13.828;2023-04-15T13:55:12;16.00;89.10
9919;DHT22;4998;51.024;13.828;2023-04-15T13:57:39;16.10;88.60
9919;DHT22;4998;51.024;13.828;2023-04-15T14:00:07;16.20;88.00
9919;DHT22;4998;51.024;13.828;2023-04-15T14:02:35;16.30;87.40
9919;DHT22;4998;51.024;13.828;2023-04-15T14:05:02;16.30;87.10
9919;DHT22;4998;51.024;13.828;2023-04-15T14:07:33;16.40;86.30
9919;DHT22;4998;51.024;13.828;2023-04-15T14:10:00;16.40;85.90
9919;DHT22;4998;51.024;13.828;2023-04-15T14:12:27;16.50;86.00
9919;DHT22;4998;51.024;13.828;2023-04-15T14:14:54;16.50;85.50
9919;DHT22;4998;51.024;13.828;2023-04-15T14:17:21;16.50;85.50
9919;DHT22;4998;51.024;13.828;2023-04-15T14:19:48;16.60;85.50
9919;DHT22;4998;51.024;13.828;2023-04-15T14:22:15;16.60;85.10
9919;DHT22;4998;51.024;13.828;2023-04-15T14:24:44;16.70;84.20
9919;DHT22;4998;51.024;13.828;2023-04-15T14:27:13;16.70;82.80
9919;DHT22;4998;51.024;13.828;2023-04-15T14:29:41;16.70;82.40
9919;DHT22;4998;51.024;13.828;2023-04-15T14:32:08;16.70;82.20
9919;DHT22;4998;51.024;13.828;2023-04-15T14:34:35;16.70;81.90
9919;DHT22;4998;51.024;13.828;2023-04-15T14:37:02;16.80;81.50
9919;DHT22;4998;51.024;13.828;2023-04-15T14:39:29;16.70;81.00
9919;DHT22;4998;51.024;13.828;2023-04-15T14:41:58;16.60;80.90
9919;DHT22;4998;51.024;13.828;2023-04-15T14:44:25;16.60;80.10
9919;DHT22;4998;51.024;13.828;2023-04-15T14:46:52;16.60;80.20
9919;DHT22;4998;51.024;13.828;2023-04-15T14:49:20;16.70;80.60
9919;DHT22;4998;51.024;13.828;2023-04-15T14:51:47;16.60;80.80
9919;DHT22;4998;51.024;13.828;2023-04-15T14:54:14;16.60;80.90
9919;DHT22;4998;51.024;13.828;2023-04-15T14:56:41;16.60;81.60
9919;DHT22;4998;51.024;13.828;2023-04-15T14:59:10;16.60;80.60
9919;DHT22;4998;51.024;13.828;2023-04-15T15:01:37;16.60;79.80
9919;DHT22;4998;51.024;13.828;2023-04-15T15:04:04;16.70;80.00
9919;DHT22;4998;51.024;13.828;2023-04-15T15:06:31;16.70;79.60
9919;DHT22;4998;51.024;13.828;2023-04-15T15:08:58;16.70;79.60
9919;DHT22;4998;51.024;13.828;2023-04-15T15:11:26;16.70;79.50
9919;DHT22;4998;51.024;13.828;2023-04-15T15:13:54;16.70;79.20
9919;DHT22;4998;51.024;13.828;2023-04-15T15:16:23;16.70;78.90
9919;DHT22;4998;51.024;13.828;2023-04-15T15:18:50;16.70;78.00
9919;DHT22;4998;51.024;13.828;2023-04-15T15:21:17;16.80;78.40
9919;DHT22;4998;51.024;13.828;2023-04-15T15:23:44;16.80;78.30
9919;DHT22;4998;51.024;13.828;2023-04-15T15:26:12;16.80;78.20
9919;DHT22;4998;51.024;13.828;2023-04-15T15:28:40;16.90;78.10
9919;DHT22;4998;51.024;13.828;2023-04-15T15:31:08;16.90;77.70
9919;DHT22;4998;51.024;13.828;2023-04-15T15:33:36;16.90;77.10
9919;DHT22;4998;51.024;13.828;2023-04-15T15:36:03;16.90;76.50
9919;DHT22;4998;51.024;13.828;2023-04-15T15:38:31;16.80;76.30
9919;DHT22;4998;51.024;13.828;2023-04-15T15:40:58;16.90;76.30
9919;DHT22;4998;51.024;13.828;2023-04-15T15:43:25;16.90;76.00
9919;DHT22;4998;51.024;13.828;2023-04-15T15:45:53;16.90;75.90
9919;DHT22;4998;51.024;13.828;2023-04-15T15:48:21;17.00;75.80
9919;DHT22;4998;51.024;13.828;2023-04-15T15:50:51;17.00;75.70